Time;durP1;ratioP1;P1;durP2;ratioP2;P2;SDS_P1;SDS_P2;PMS_P1;PMS_P2;Temp;Humidity;BMP_temperature;BMP_pressure;BME280_temperature;BME280_humidity;BME280_pressure;Samples;Min_cycle;Max_cycle;Signal;HPM_P1;HPM_P2
2020/12/30 00:00:21;;;;;;;25.30;11.25;;;4.30;99.90;;;;;;5047963;28;20093;-76
2020/12/30 00:02:47;;;;;;;21.63;9.85;;;4.30;99.90;;;;;;5029823;28;20130;-76
2020/12/30 00:05:13;;;;;;;21.75;9.68;;;4.30;99.90;;;;;;5047335;28;20023;-76
2020/12/30 00:07:39;;;;;;;20.40;9.27;;;4.30;99.90;;;;;;5030005;28;20064;-77
2020/12/30 00:10:08;;;;;;;23.23;10.63;;;4.30;99.90;;;;;;5030124;28;20100;-79
2020/12/30 00:12:34;;;;;;;20.45;8.07;;;4.30;99.90;;;;;;5030054;28;20029;-80
2020/12/30 00:15:00;;;;;;;20.15;7.60;;;4.30;99.90;;;;;;5030018;28;20187;-78
2020/12/30 00:17:27;;;;;;;25.67;9.45;;;4.30;99.90;;;;;;5029785;28;20490;-80
2020/12/30 00:19:52;;;;;;;14.90;8.65;;;4.30;99.90;;;;;;5029510;28;20033;-81
2020/12/30 00:22:18;;;;;;;15.90;7.35;;;4.30;99.90;;;;;;5029664;28;20124;-78
2020/12/30 00:24:44;;;;;;;23.48;8.75;;;4.30;99.90;;;;;;5029685;28;20030;-78
2020/12/30 00:27:10;;;;;;;20.50;9.70;;;4.30;99.90;;;;;;5029306;28;20037;-79
2020/12/30 00:29:36;;;;;;;15.40;8.45;;;4.30;99.90;;;;;;5029868;28;20026;-78
2020/12/30 00:32:02;;;;;;;21.13;10.23;;;4.30;99.90;;;;;;5029144;28;20508;-79
2020/12/30 00:34:28;;;;;;;23.08;9.32;;;4.30;99.90;;;;;;5029029;28;20021;-79
2020/12/30 00:36:53;;;;;;;23.50;10.18;;;4.30;99.90;;;;;;5047307;28;20052;-82
2020/12/30 00:39:19;;;;;;;20.10;8.60;;;4.30;99.90;;;;;;5046764;28;20081;-79
2020/12/30 00:41:44;;;;;;;13.50;7.82;;;4.30;99.90;;;;;;5029437;28;20030;-79
2020/12/30 00:44:10;;;;;;;19.38;8.77;;;4.30;99.90;;;;;;5029448;28;20064;-79
2020/12/30 00:46:36;;;;;;;18.58;8.85;;;4.30;99.90;;;;;;5047062;28;20057;-79
2020/12/30 00:49:02;;;;;;;17.55;8.95;;;4.30;99.90;;;;;;5047150;28;20084;-79
2020/12/30 00:51:28;;;;;;;24.58;11.02;;;4.30;99.90;;;;;;5029330;28;20076;-77
2020/12/30 00:53:53;;;;;;;22.65;10.90;;;4.40;99.90;;;;;;5028823;28;20045;-77
2020/12/30 00:56:19;;;;;;;19.05;10.50;;;4.30;99.90;;;;;;5047112;28;20029;-77
2020/12/30 00:58:45;;;;;;;19.10;8.25;;;4.30;99.90;;;;;;5046986;28;20032;-79
2020/12/30 01:01:10;;;;;;;15.93;6.22;;;4.30;99.90;;;;;;5046863;28;20056;-79
2020/12/30 01:03:38;;;;;;;17.35;8.70;;;4.30;99.90;;;;;;5029214;28;20101;-79
2020/12/30 01:06:04;;;;;;;16.30;8.93;;;4.30;99.90;;;;;;5028800;28;20025;-79
2020/12/30 01:08:29;;;;;;;21.45;8.70;;;4.30;99.90;;;;;;5046598;28;20100;-77
2020/12/30 01:10:55;;;;;;;19.50;9.15;;;4.30;99.90;;;;;;5028610;28;20025;-78
2020/12/30 01:13:21;;;;;;;13.90;6.22;;;4.20;99.90;;;;;;5028774;28;20029;-80
2020/12/30 01:15:47;;;;;;;8.02;4.78;;;4.20;99.90;;;;;;5028598;28;20466;-78
2020/12/30 01:18:13;;;;;;;13.05;6.63;;;4.20;99.90;;;;;;5028794;28;20025;-80
2020/12/30 01:20:40;;;;;;;16.35;7.85;;;4.20;99.90;;;;;;5028666;28;20025;-79
2020/12/30 01:23:06;;;;;;;15.55;8.38;;;4.20;99.90;;;;;;5046420;28;20100;-78
2020/12/30 01:25:31;;;;;;;18.90;8.55;;;4.20;99.90;;;;;;5046638;28;20033;-79
2020/12/30 01:27:57;;;;;;;15.93;7.63;;;4.20;99.90;;;;;;5046276;28;20379;-79
2020/12/30 01:30:23;;;;;;;15.95;6.15;;;4.20;99.90;;;;;;5028374;28;20021;-79
2020/12/30 01:32:48;;;;;;;24.73;10.57;;;4.20;99.90;;;;;;5046265;28;20028;-78
2020/12/30 01:35:14;;;;;;;17.35;9.23;;;4.20;99.90;;;;;;5045813;28;20109;-79
2020/12/30 01:37:41;;;;;;;15.88;8.70;;;4.20;99.90;;;;;;5028401;28;20025;-78
2020/12/30 01:40:06;;;;;;;16.13;7.72;;;4.20;99.90;;;;;;5046311;28;20025;-77
2020/12/30 01:42:48;;;;;;;19.75;8.90;;;4.20;99.90;;;;;;5045715;28;20063;-78
2020/12/30 01:45:15;;;;;;;15.10;7.47;;;4.20;99.90;;;;;;5028127;28;20080;-79
2020/12/30 01:47:47;;;;;;;16.95;8.10;;;4.20;99.90;;;;;;5028258;28;20045;-78
2020/12/30 01:50:14;;;;;;;17.02;6.80;;;4.20;99.90;;;;;;5028006;28;20036;-78
2020/12/30 01:52:41;;;;;;;19.92;8.82;;;4.30;99.90;;;;;;5046249;28;20021;-78
2020/12/30 01:55:07;;;;;;;15.90;9.10;;;4.20;99.90;;;;;;5028257;28;20025;-75
2020/12/30 01:57:36;;;;;;;27.10;9.88;;;4.20;99.90;;;;;;5045675;28;20652;-79
2020/12/30 02:00:06;;;;;;;11.57;6.13;;;4.30;99.90;;;;;;5028137;28;20659;-80
2020/12/30 02:02:35;;;;;;;14.13;8.05;;;4.20;99.90;;;;;;5027569;28;20033;-78
2020/12/30 02:05:02;;;;;;;15.45;7.45;;;4.10;99.90;;;;;;5045377;28;20022;-80
2020/12/30 02:07:28;;;;;;;21.77;8.60;;;4.10;99.90;;;;;;5027755;28;20117;-79
2020/12/30 02:09:56;;;;;;;22.27;9.18;;;4.10;99.90;;;;;;5027050;28;20053;-81
2020/12/30 02:12:22;;;;;;;18.13;8.57;;;4.20;99.90;;;;;;5045677;28;20030;-78
2020/12/30 02:14:48;;;;;;;21.45;8.93;;;4.10;99.90;;;;;;5027571;28;20034;-80
2020/12/30 02:17:15;;;;;;;21.92;10.05;;;4.10;99.90;;;;;;5027450;28;20029;-79
2020/12/30 02:19:42;;;;;;;19.80;9.15;;;4.10;99.90;;;;;;5045245;28;20029;-78
2020/12/30 02:22:12;;;;;;;16.48;8.75;;;4.10;99.90;;;;;;5045646;28;20021;-80
2020/12/30 02:24:38;;;;;;;20.10;9.68;;;4.10;99.90;;;;;;5045197;28;20072;-79
2020/12/30 02:27:05;;;;;;;26.52;10.43;;;4.10;99.90;;;;;;5045485;28;20025;-77
2020/12/30 02:29:32;;;;;;;14.07;7.93;;;4.10;99.90;;;;;;5045241;28;20029;-77
2020/12/30 02:31:58;;;;;;;16.42;8.48;;;4.00;99.90;;;;;;5026960;28;20029;-77
2020/12/30 02:34:24;;;;;;;16.40;7.63;;;4.00;99.90;;;;;;5026972;28;20029;-77
2020/12/30 02:36:51;;;;;;;24.73;8.52;;;4.00;99.90;;;;;;5044031;28;20057;-84
2020/12/30 02:39:18;;;;;;;17.00;8.13;;;4.00;99.90;;;;;;5043819;28;20026;-80
2020/12/30 02:41:46;;;;;;;19.77;9.32;;;4.00;99.90;;;;;;5026537;28;20030;-79
2020/12/30 02:44:11;;;;;;;22.08;9.50;;;4.00;99.90;;;;;;5026211;28;20054;-78
2020/12/30 02:46:37;;;;;;;21.05;10.15;;;4.00;99.90;;;;;;5026405;28;20478;-77
2020/12/30 02:49:02;;;;;;;28.63;10.95;;;4.00;99.90;;;;;;5026459;28;20029;-77
2020/12/30 02:51:28;;;;;;;19.80;9.98;;;4.00;99.90;;;;;;5043721;28;20033;-75
2020/12/30 02:53:54;;;;;;;9.07;5.90;;;4.00;99.90;;;;;;5044105;28;20025;-74
2020/12/30 02:56:20;;;;;;;22.63;9.48;;;4.00;99.90;;;;;;5025965;28;20026;-77
2020/12/30 02:58:47;;;;;;;15.93;6.50;;;3.90;99.90;;;;;;5025860;28;20029;-77
2020/12/30 03:01:13;;;;;;;21.70;9.80;;;4.00;99.90;;;;;;5026279;28;20085;-80
2020/12/30 03:03:40;;;;;;;35.30;9.85;;;3.90;99.90;;;;;;5044240;28;20033;-78
2020/12/30 03:06:06;;;;;;;13.82;7.85;;;3.90;99.90;;;;;;5026162;28;20029;-78
2020/12/30 03:08:32;;;;;;;14.57;7.22;;;3.90;99.90;;;;;;5043920;28;20520;-78
2020/12/30 03:10:58;;;;;;;19.27;8.65;;;3.90;99.90;;;;;;5043943;28;20030;-77
2020/12/30 03:13:24;;;;;;;19.88;8.65;;;3.90;99.90;;;;;;5043505;28;20030;-80
2020/12/30 03:15:49;;;;;;;16.67;7.40;;;3.90;99.90;;;;;;5044004;28;20104;-77
2020/12/30 03:18:15;;;;;;;18.08;6.43;;;3.90;99.90;;;;;;5043432;28;20029;-77
2020/12/30 03:20:41;;;;;;;19.85;8.75;;;3.90;99.90;;;;;;5025849;28;20424;-79
2020/12/30 03:23:07;;;;;;;15.45;6.90;;;3.80;99.90;;;;;;5028414;28;20037;-78
2020/12/30 03:25:33;;;;;;;19.67;9.20;;;3.80;99.90;;;;;;5047097;28;20075;-77
2020/12/30 03:27:59;;;;;;;24.95;8.95;;;3.80;99.90;;;;;;5047234;28;20034;-77
2020/12/30 03:30:25;;;;;;;17.98;9.27;;;3.80;99.90;;;;;;5029439;28;20492;-78
2020/12/30 03:32:50;;;;;;;20.13;8.30;;;3.80;99.90;;;;;;5047077;28;20101;-77
2020/12/30 03:35:17;;;;;;;17.75;8.68;;;3.70;99.90;;;;;;5008178;28;603840;-77
2020/12/30 03:37:43;;;;;;;20.17;10.40;;;3.80;99.90;;;;;;5048792;28;20030;-78
2020/12/30 03:40:09;;;;;;;19.50;8.85;;;3.80;99.90;;;;;;5030277;28;20038;-77
2020/12/30 03:42:35;;;;;;;18.13;8.43;;;3.80;99.90;;;;;;5030532;28;20044;-77
2020/12/30 03:45:01;;;;;;;21.45;10.35;;;3.70;99.90;;;;;;5030374;28;20129;-76
2020/12/30 03:47:30;;;;;;;23.45;10.27;;;3.80;99.90;;;;;;5030108;28;20053;-77
2020/12/30 03:49:56;;;;;;;14.35;8.07;;;3.80;99.90;;;;;;5030069;28;20505;-76
2020/12/30 03:52:22;;;;;;;17.63;8.48;;;3.80;99.90;;;;;;5048317;28;20057;-78
2020/12/30 03:54:48;;;;;;;16.15;8.05;;;3.80;99.90;;;;;;5047834;28;20089;-78
2020/12/30 03:57:14;;;;;;;21.63;8.45;;;3.80;99.90;;;;;;5030160;28;20021;-76
2020/12/30 03:59:40;;;;;;;12.65;6.18;;;3.80;99.90;;;;;;5047866;28;20029;-78
2020/12/30 04:02:05;;;;;;;18.05;8.45;;;3.80;99.90;;;;;;5030204;28;20042;-77
2020/12/30 04:04:31;;;;;;;25.10;11.32;;;3.90;99.90;;;;;;5048098;28;20063;-77
2020/12/30 04:06:57;;;;;;;18.83;7.63;;;3.90;99.90;;;;;;5047885;28;20026;-78
2020/12/30 04:09:22;;;;;;;18.75;8.60;;;3.90;99.90;;;;;;5047828;28;20489;-79
2020/12/30 04:11:48;;;;;;;21.35;9.07;;;3.80;99.90;;;;;;5048198;28;20049;-77
2020/12/30 04:14:13;;;;;;;20.70;9.05;;;3.90;99.90;;;;;;5047832;28;20021;-77
2020/12/30 04:16:40;;;;;;;19.30;7.88;;;3.90;99.90;;;;;;5043473;28;20034;-77
2020/12/30 04:19:05;;;;;;;20.70;10.35;;;3.90;99.90;;;;;;5047524;28;20097;-75
2020/12/30 04:21:31;;;;;;;21.58;10.88;;;3.90;99.90;;;;;;5047706;28;20026;-75
2020/12/30 04:23:56;;;;;;;19.65;8.07;;;3.90;99.90;;;;;;5047346;28;20060;-74
2020/12/30 04:26:22;;;;;;;22.92;9.88;;;3.90;99.90;;;;;;5029455;28;20056;-74
2020/12/30 04:28:49;;;;;;;17.13;8.60;;;3.90;99.90;;;;;;5047285;28;20079;-74
2020/12/30 04:31:17;;;;;;;23.48;10.23;;;3.90;99.90;;;;;;5029497;28;20025;-77
2020/12/30 04:33:43;;;;;;;19.17;7.78;;;3.90;99.90;;;;;;5029311;28;20097;-75
2020/12/30 04:36:10;;;;;;;20.40;9.90;;;3.90;99.90;;;;;;5029015;28;20045;-75
2020/12/30 04:38:36;;;;;;;20.73;9.88;;;3.90;99.90;;;;;;5047546;28;20436;-74
2020/12/30 04:41:12;;;;;;;30.27;10.43;;;3.90;99.90;;;;;;5047486;28;20029;-74
2020/12/30 04:43:47;;;;;;;20.05;9.40;;;3.80;99.90;;;;;;5029074;28;20080;-76
2020/12/30 04:46:14;;;;;;;18.42;9.20;;;3.90;99.90;;;;;;5047601;28;20496;-77
2020/12/30 04:48:41;;;;;;;20.02;8.38;;;3.90;99.90;;;;;;5047156;28;20053;-75
2020/12/30 04:51:07;;;;;;;18.65;9.57;;;3.90;99.90;;;;;;5046857;28;20021;-76
2020/12/30 04:53:35;;;;;;;16.40;8.23;;;3.90;99.90;;;;;;5047361;28;20034;-77
2020/12/30 04:56:02;;;;;;;12.43;6.43;;;3.90;99.90;;;;;;5039177;28;20036;-76
2020/12/30 04:58:30;;;;;;;17.90;9.65;;;3.90;99.90;;;;;;5046474;28;20680;-78
2020/12/30 05:00:57;;;;;;;21.02;10.23;;;3.90;99.90;;;;;;5047096;28;20034;-77
2020/12/30 05:03:31;;;;;;;20.75;9.57;;;3.90;99.90;;;;;;5028935;28;20052;-77
2020/12/30 05:06:03;;;;;;;17.73;9.73;;;3.90;99.90;;;;;;5046333;28;20028;-77
2020/12/30 05:08:33;;;;;;;18.58;10.27;;;3.90;99.90;;;;;;5046860;28;20044;-77
2020/12/30 05:10:59;;;;;;;17.45;8.75;;;3.90;99.90;;;;;;5046978;28;20025;-76
2020/12/30 05:13:26;;;;;;;22.05;10.10;;;3.90;99.90;;;;;;5046438;28;20034;-77
2020/12/30 05:15:51;;;;;;;17.15;6.85;;;3.90;99.90;;;;;;5046700;28;20117;-77
2020/12/30 05:18:19;;;;;;;17.05;7.00;;;3.90;99.90;;;;;;5046316;28;20032;-76
2020/12/30 05:20:45;;;;;;;18.92;7.05;;;3.90;99.90;;;;;;5046430;28;20026;-77
2020/12/30 05:23:12;;;;;;;22.30;8.35;;;3.90;99.90;;;;;;5028952;28;20556;-78
2020/12/30 05:25:39;;;;;;;16.75;9.40;;;3.90;99.90;;;;;;5046756;28;20025;-78
2020/12/30 05:28:06;;;;;;;16.17;6.78;;;3.90;99.90;;;;;;5046407;28;20056;-78
2020/12/30 05:30:32;;;;;;;18.08;8.88;;;3.90;99.90;;;;;;5028515;28;20486;-77
2020/12/30 05:32:59;;;;;;;15.07;7.05;;;3.90;99.90;;;;;;5027956;28;20113;-78
2020/12/30 05:35:28;;;;;;;17.58;7.65;;;3.90;99.90;;;;;;5027729;28;20057;-78
2020/12/30 05:37:55;;;;;;;19.50;9.55;;;3.90;99.90;;;;;;5046431;28;20017;-78
2020/12/30 05:40:23;;;;;;;17.00;7.57;;;3.90;99.90;;;;;;5046012;28;20021;-78
2020/12/30 05:42:52;;;;;;;24.42;7.75;;;3.90;99.90;;;;;;5046049;28;20119;-77
2020/12/30 05:45:23;;;;;;;14.98;8.07;;;3.90;99.90;;;;;;5045717;28;20060;-77
2020/12/30 05:47:50;;;;;;;12.85;6.30;;;3.80;99.90;;;;;;5045840;28;20048;-79
2020/12/30 05:50:25;;;;;;;17.27;8.90;;;3.80;99.90;;;;;;5045746;28;20036;-77
2020/12/30 05:52:54;;;;;;;11.80;5.97;;;3.80;99.90;;;;;;5045854;28;20030;-78
2020/12/30 05:55:25;;;;;;;14.98;8.45;;;3.80;99.90;;;;;;5045583;28;20029;-76
2020/12/30 05:57:51;;;;;;;15.63;7.68;;;3.80;99.90;;;;;;5046282;28;20112;-77
2020/12/30 06:00:17;;;;;;;15.07;8.35;;;3.80;99.90;;;;;;5045563;28;20041;-77
2020/12/30 06:02:44;;;;;;;15.43;7.97;;;3.80;99.90;;;;;;5028097;28;20029;-76
2020/12/30 06:05:22;;;;;;;15.52;8.30;;;3.80;99.90;;;;;;5045219;28;20030;-74
2020/12/30 06:07:49;;;;;;;20.30;7.93;;;3.80;99.90;;;;;;5045207;28;20030;-74
2020/12/30 06:10:17;;;;;;;9.52;6.40;;;3.80;99.90;;;;;;5045661;28;20032;-75
2020/12/30 06:12:44;;;;;;;14.02;7.00;;;3.80;99.90;;;;;;5028129;28;20473;-79
2020/12/30 06:15:17;;;;;;;16.35;7.80;;;3.80;99.90;;;;;;5027593;28;20034;-79
2020/12/30 06:17:54;;;;;;;18.15;9.50;;;3.70;99.90;;;;;;5027709;28;20025;-78
2020/12/30 06:20:36;;;;;;;15.90;8.07;;;3.80;99.90;;;;;;5027408;28;20029;-78
2020/12/30 06:23:09;;;;;;;16.42;6.00;;;3.80;99.90;;;;;;5027389;28;20044;-78
2020/12/30 06:25:47;;;;;;;8.10;4.47;;;3.70;99.90;;;;;;5045794;28;20431;-77
2020/12/30 06:28:15;;;;;;;17.35;9.13;;;3.70;99.90;;;;;;5027320;28;20025;-79
2020/12/30 06:30:46;;;;;;;14.15;5.85;;;3.70;99.90;;;;;;5045386;28;20059;-78
2020/12/30 06:33:12;;;;;;;11.05;6.45;;;3.70;99.90;;;;;;5027304;28;20029;-79
2020/12/30 06:35:40;;;;;;;18.10;6.28;;;3.70;99.90;;;;;;5044680;28;20056;-77
2020/12/30 06:38:24;;;;;;;15.90;7.07;;;3.70;99.90;;;;;;5027806;28;20121;-77
2020/12/30 06:41:04;;;;;;;11.38;5.25;;;3.70;99.90;;;;;;5027170;28;20033;-78
2020/12/30 06:43:39;;;;;;;21.98;8.75;;;3.70;99.90;;;;;;5027104;28;20048;-77
2020/12/30 06:46:09;;;;;;;14.70;6.88;;;3.70;99.90;;;;;;5027389;28;20029;-77
2020/12/30 06:48:58;;;;;;;13.45;7.70;;;3.70;99.90;;;;;;5027171;28;20022;-77
2020/12/30 06:51:25;;;;;;;17.13;8.95;;;3.70;99.90;;;;;;5026826;28;20034;-77
2020/12/30 06:53:52;;;;;;;13.38;6.57;;;3.70;99.90;;;;;;5045098;28;20061;-78
2020/12/30 06:56:41;;;;;;;19.85;8.88;;;3.70;99.90;;;;;;5044688;28;20036;-77
2020/12/30 06:59:14;;;;;;;19.63;8.82;;;3.60;99.90;;;;;;5027316;28;20478;-76
2020/12/30 07:01:53;;;;;;;16.42;7.57;;;3.60;99.90;;;;;;5026862;28;20025;-79
2020/12/30 07:04:19;;;;;;;21.30;8.05;;;3.70;99.90;;;;;;5026180;28;20057;-76
2020/12/30 07:06:44;;;;;;;24.77;9.95;;;3.80;99.90;;;;;;5044324;28;20029;-78
2020/12/30 07:09:13;;;;;;;14.63;8.07;;;3.70;99.90;;;;;;5044130;28;20108;-76
2020/12/30 07:11:50;;;;;;;18.17;7.80;;;3.60;99.90;;;;;;5026600;28;20030;-75
2020/12/30 07:14:18;;;;;;;21.77;8.40;;;3.60;99.90;;;;;;5044342;28;20026;-72
2020/12/30 07:16:49;;;;;;;15.27;8.15;;;3.70;99.90;;;;;;5043784;28;20033;-77
2020/12/30 07:19:16;;;;;;;13.90;7.50;;;3.60;99.90;;;;;;5044329;28;20025;-80
2020/12/30 07:21:59;;;;;;;19.15;10.25;;;3.60;99.90;;;;;;5044465;28;20029;-78
2020/12/30 07:24:28;;;;;;;18.40;8.80;;;3.60;99.90;;;;;;5044019;28;20129;-76
2020/12/30 07:26:57;;;;;;;19.30;9.07;;;3.60;99.90;;;;;;5026492;28;20332;-79
2020/12/30 07:29:23;;;;;;;19.58;8.02;;;3.60;99.90;;;;;;5044281;28;20382;-77
2020/12/30 07:31:53;;;;;;;15.07;8.02;;;3.60;99.90;;;;;;5026112;28;20036;-77
2020/12/30 07:34:24;;;;;;;16.98;8.18;;;3.60;99.90;;;;;;5026356;28;20056;-77
2020/12/30 07:36:50;;;;;;;15.45;7.70;;;3.60;99.90;;;;;;5043679;28;20050;-77
2020/12/30 07:39:23;;;;;;;17.20;8.63;;;3.60;99.90;;;;;;5026199;28;20049;-77
2020/12/30 07:41:49;;;;;;;13.43;7.68;;;3.60;99.90;;;;;;5044365;28;20036;-78
2020/12/30 07:44:15;;;;;;;20.90;8.55;;;3.60;99.90;;;;;;5043912;28;20037;-77
2020/12/30 07:46:41;;;;;;;20.42;8.93;;;3.60;99.90;;;;;;5026598;28;20029;-78
2020/12/30 07:49:22;;;;;;;14.35;6.78;;;3.60;99.90;;;;;;5026388;28;20033;-77
2020/12/30 07:51:53;;;;;;;15.82;7.68;;;3.60;99.90;;;;;;5025603;28;20450;-79
2020/12/30 07:54:20;;;;;;;13.02;7.28;;;3.60;99.90;;;;;;5026688;28;20041;-77
2020/12/30 07:56:46;;;;;;;18.42;8.93;;;3.60;99.90;;;;;;5026304;28;20040;-77
2020/12/30 07:59:23;;;;;;;15.73;8.70;;;3.70;99.90;;;;;;5043639;28;20093;-78
2020/12/30 08:01:54;;;;;;;15.80;7.00;;;3.70;99.90;;;;;;5044217;28;20462;-80
2020/12/30 08:04:19;;;;;;;21.58;8.65;;;3.70;99.90;;;;;;5025019;28;20045;-76
2020/12/30 08:06:46;;;;;;;13.77;7.35;;;3.70;99.90;;;;;;5019113;28;20132;-79
2020/12/30 08:09:13;;;;;;;11.90;5.82;;;3.70;99.90;;;;;;5045656;28;20022;-79
2020/12/30 08:11:52;;;;;;;15.77;6.53;;;3.70;99.90;;;;;;5028983;28;20025;-80
2020/12/30 08:14:19;;;;;;;17.30;9.73;;;3.70;99.90;;;;;;5029614;28;20097;-78
2020/12/30 08:16:55;;;;;;;17.73;8.23;;;3.70;99.90;;;;;;5030032;28;20025;-78
2020/12/30 08:19:45;;;;;;;22.60;8.73;;;3.70;99.90;;;;;;5029609;28;20038;-78
2020/12/30 08:22:26;;;;;;;13.63;7.72;;;3.60;99.90;;;;;;5029352;28;20029;-78
2020/12/30 08:24:56;;;;;;;16.25;8.35;;;3.70;99.90;;;;;;5029372;28;20379;-77
2020/12/30 08:27:24;;;;;;;18.17;7.80;;;3.70;99.90;;;;;;5047187;28;20021;-78
2020/12/30 08:29:50;;;;;;;15.63;7.72;;;3.70;99.90;;;;;;5047355;28;20026;-77
2020/12/30 08:32:31;;;;;;;15.30;9.02;;;3.70;99.90;;;;;;5047487;28;20026;-77
2020/12/30 08:35:06;;;;;;;11.70;5.05;;;3.70;99.90;;;;;;5028779;28;20049;-76
2020/12/30 08:37:38;;;;;;;20.67;8.95;;;3.70;99.90;;;;;;5047248;28;20535;-76
2020/12/30 08:40:03;;;;;;;13.95;7.82;;;3.80;99.90;;;;;;5047090;28;20018;-78
2020/12/30 08:42:45;;;;;;;19.00;8.48;;;3.70;99.90;;;;;;5047056;28;20036;-78
2020/12/30 08:45:13;;;;;;;16.92;8.75;;;3.70;99.90;;;;;;5029454;28;20044;-78
2020/12/30 08:47:39;;;;;;;17.65;8.55;;;3.70;99.90;;;;;;5028997;28;20029;-78
2020/12/30 08:50:09;;;;;;;24.17;8.82;;;3.80;99.90;;;;;;5046872;28;20044;-80
2020/12/30 08:52:44;;;;;;;15.77;8.77;;;3.70;99.90;;;;;;5029290;28;20021;-79
2020/12/30 08:55:10;;;;;;;23.83;9.10;;;3.80;99.90;;;;;;5046880;28;20040;-77
2020/12/30 08:57:42;;;;;;;14.20;8.57;;;3.70;99.90;;;;;;5029247;28;20030;-78
2020/12/30 09:00:18;;;;;;;21.75;9.23;;;3.70;99.90;;;;;;5029286;28;20112;-80
2020/12/30 09:02:44;;;;;;;20.67;10.18;;;3.80;99.90;;;;;;5026656;28;20034;-80
2020/12/30 09:05:10;;;;;;;14.20;7.45;;;3.70;99.90;;;;;;5027751;28;20026;-81
2020/12/30 09:07:37;;;;;;;22.05;10.13;;;3.70;99.90;;;;;;5028840;28;20021;-79
2020/12/30 09:10:11;;;;;;;23.30;10.43;;;3.80;99.90;;;;;;5028341;28;20056;-78
2020/12/30 09:12:38;;;;;;;25.05;10.75;;;3.80;99.90;;;;;;5062173;28;20171;-78
2020/12/30 09:15:07;;;;;;;14.80;8.68;;;3.80;99.90;;;;;;5047298;28;20108;-79
2020/12/30 09:17:34;;;;;;;14.85;7.60;;;3.90;99.90;;;;;;5028439;28;20026;-79
2020/12/30 09:20:30;;;;;;;26.40;11.00;;;3.70;99.90;;;;;;5050028;28;20021;-80
2020/12/30 09:22:59;;;;;;;26.02;9.85;;;3.70;99.90;;;;;;5071922;28;20061;-77
2020/12/30 09:25:27;;;;;;;24.20;11.02;;;3.70;99.90;;;;;;5068657;28;20021;-79
2020/12/30 09:27:52;;;;;;;22.98;9.90;;;3.60;99.90;;;;;;5047458;28;20179;-80
2020/12/30 09:30:20;;;;;;;23.40;10.02;;;3.70;99.90;;;;;;5047552;28;20033;-78
2020/12/30 09:32:48;;;;;;;21.75;10.27;;;3.60;99.90;;;;;;5065430;28;20098;-79
2020/12/30 09:35:15;;;;;;;15.77;8.48;;;3.60;99.90;;;;;;5047194;28;20128;-78
2020/12/30 09:37:52;;;;;;;22.30;11.07;;;3.60;99.90;;;;;;5047266;28;20032;-76
2020/12/30 09:40:18;;;;;;;20.95;10.25;;;3.60;99.90;;;;;;5047461;28;20036;-78
2020/12/30 09:42:45;;;;;;;20.45;10.00;;;3.60;99.90;;;;;;5047458;28;20029;-77
2020/12/30 09:45:15;;;;;;;23.80;10.85;;;3.50;99.90;;;;;;5048498;28;20099;-77
2020/12/30 09:47:42;;;;;;;16.55;8.55;;;3.60;99.90;;;;;;5048422;28;20032;-77
2020/12/30 09:50:13;;;;;;;21.05;10.18;;;3.50;99.90;;;;;;5048026;28;20053;-76
2020/12/30 09:52:48;;;;;;;22.42;10.95;;;3.50;99.90;;;;;;5047375;28;20053;-81
2020/12/30 09:55:13;;;;;;;20.38;8.25;;;3.50;99.90;;;;;;5065863;28;20036;-76
2020/12/30 09:57:41;;;;;;;13.93;8.50;;;3.50;99.90;;;;;;5047741;28;20033;-78
2020/12/30 10:00:08;;;;;;;16.00;9.07;;;3.50;99.90;;;;;;5047813;28;20025;-78
2020/12/30 10:02:34;;;;;;;19.52;8.95;;;3.50;99.90;;;;;;5047166;28;20028;-78
2020/12/30 10:05:00;;;;;;;16.73;8.43;;;3.50;99.90;;;;;;5065045;28;20076;-78
2020/12/30 10:07:26;;;;;;;18.35;10.02;;;3.50;99.90;;;;;;5047437;28;20036;-75
2020/12/30 10:09:52;;;;;;;19.95;8.25;;;3.50;99.90;;;;;;5047476;28;20116;-76
2020/12/30 10:12:20;;;;;;;24.35;9.20;;;3.50;99.90;;;;;;5047087;28;20050;-75
2020/12/30 10:14:46;;;;;;;16.40;7.85;;;3.40;99.90;;;;;;5065362;28;20048;-76
2020/12/30 10:17:11;;;;;;;20.08;8.15;;;3.50;99.90;;;;;;5047064;28;20029;-77
2020/12/30 10:19:37;;;;;;;22.33;10.75;;;3.50;99.90;;;;;;5047180;28;20029;-77
2020/12/30 10:22:10;;;;;;;18.67;8.98;;;3.50;99.90;;;;;;5047321;28;20025;-75
2020/12/30 10:24:36;;;;;;;26.70;10.35;;;3.50;99.90;;;;;;5046904;28;20045;-76
2020/12/30 10:27:02;;;;;;;18.50;10.65;;;3.50;99.90;;;;;;5028666;28;20045;-74
2020/12/30 10:29:30;;;;;;;36.28;11.38;;;3.60;99.90;;;;;;5027688;28;20029;-75
2020/12/30 10:31:56;;;;;;;25.50;11.52;;;3.60;99.90;;;;;;5059613;28;20381;-74
2020/12/30 10:34:23;;;;;;;20.05;9.73;;;3.60;99.90;;;;;;5026976;28;20029;-75
2020/12/30 10:36:48;;;;;;;14.48;8.30;;;3.60;99.90;;;;;;5044418;28;20045;-75
2020/12/30 10:39:14;;;;;;;26.50;10.85;;;3.60;99.90;;;;;;5044661;28;20025;-78
2020/12/30 10:41:40;;;;;;;22.95;10.43;;;3.60;99.90;;;;;;5044667;28;20030;-76
2020/12/30 10:44:05;;;;;;;24.80;11.48;;;3.60;99.90;;;;;;5044367;28;20041;-75
2020/12/30 10:46:31;;;;;;;19.33;9.32;;;3.70;99.90;;;;;;5044325;28;20034;-75
2020/12/30 10:48:57;;;;;;;14.60;7.85;;;3.70;99.90;;;;;;5043333;28;20021;-76
2020/12/30 10:51:22;;;;;;;15.32;8.23;;;3.70;99.90;;;;;;5026786;28;20040;-75
2020/12/30 10:53:48;;;;;;;18.02;8.55;;;3.70;99.90;;;;;;5044493;28;20028;-76
2020/12/30 10:56:14;;;;;;;29.92;10.00;;;3.70;99.90;;;;;;5044994;28;20045;-75
2020/12/30 10:58:40;;;;;;;24.33;11.00;;;3.70;99.90;;;;;;5041497;28;20041;-78
2020/12/30 11:01:10;;;;;;;25.92;10.90;;;3.70;99.90;;;;;;5042444;28;20401;-77
2020/12/30 11:03:36;;;;;;;22.95;10.45;;;3.70;99.90;;;;;;5040529;28;20037;-77
2020/12/30 11:06:03;;;;;;;27.67;9.32;;;3.70;99.90;;;;;;5040674;28;20030;-76
2020/12/30 11:08:29;;;;;;;19.33;8.45;;;3.70;99.90;;;;;;5042634;28;20092;-75
2020/12/30 11:11:00;;;;;;;20.10;10.60;;;3.80;99.90;;;;;;5025157;28;20064;-76
2020/12/30 11:13:26;;;;;;;25.30;10.00;;;3.80;99.90;;;;;;5042976;28;20101;-82
2020/12/30 11:15:52;;;;;;;22.02;10.85;;;3.80;99.90;;;;;;5025301;28;20026;-76
2020/12/30 11:18:18;;;;;;;15.18;9.20;;;3.80;99.90;;;;;;5043087;28;20025;-77
2020/12/30 11:20:48;;;;;;;14.27;7.40;;;3.90;99.90;;;;;;5041909;28;20097;-85
2020/12/30 11:23:15;;;;;;;19.02;9.32;;;3.90;99.90;;;;;;5042170;28;20465;-78
2020/12/30 11:25:45;;;;;;;17.27;7.63;;;3.90;99.90;;;;;;5042200;28;20029;-76
2020/12/30 11:28:11;;;;;;;19.38;9.77;;;3.90;99.90;;;;;;5025308;28;20029;-78
2020/12/30 11:30:37;;;;;;;15.60;8.10;;;4.00;99.90;;;;;;5042241;28;20053;-74
2020/12/30 11:33:04;;;;;;;26.80;9.18;;;4.00;99.90;;;;;;5038657;28;20037;-77
2020/12/30 11:35:30;;;;;;;18.00;8.88;;;4.00;99.90;;;;;;5042324;28;20054;-76
2020/12/30 11:37:56;;;;;;;22.73;8.57;;;4.10;99.90;;;;;;5025455;28;20347;-76
2020/12/30 11:40:21;;;;;;;24.88;10.88;;;4.10;99.90;;;;;;5025159;28;20034;-76
2020/12/30 11:42:47;;;;;;;17.85;7.70;;;4.10;99.90;;;;;;5025386;28;20033;-77
2020/12/30 11:45:13;;;;;;;19.40;9.48;;;4.20;99.90;;;;;;5047165;28;20040;-76
2020/12/30 11:47:40;;;;;;;14.63;6.78;;;4.10;99.90;;;;;;5029405;28;20026;-77
2020/12/30 11:50:06;;;;;;;18.17;7.95;;;4.10;99.90;;;;;;5028849;28;20427;-75
2020/12/30 11:52:32;;;;;;;23.85;9.88;;;4.10;99.90;;;;;;5029026;28;20038;-75
2020/12/30 11:54:58;;;;;;;22.40;10.20;;;4.10;99.90;;;;;;5047015;28;20025;-77
2020/12/30 11:57:24;;;;;;;22.13;9.43;;;4.10;99.90;;;;;;5028690;28;20036;-75
2020/12/30 11:59:50;;;;;;;22.20;10.93;;;4.10;99.90;;;;;;5028962;28;20025;-76
2020/12/30 12:02:15;;;;;;;23.63;10.20;;;4.10;99.90;;;;;;5029226;28;20060;-79
2020/12/30 12:04:41;;;;;;;22.95;11.32;;;4.20;99.90;;;;;;5027621;28;20041;-78
2020/12/30 12:07:07;;;;;;;19.05;9.88;;;4.20;99.90;;;;;;5028964;28;20022;-77
2020/12/30 12:09:32;;;;;;;26.00;11.30;;;4.20;99.90;;;;;;5046270;28;20022;-76
2020/12/30 12:12:00;;;;;;;23.48;10.50;;;4.20;99.90;;;;;;5046476;28;20033;-77
2020/12/30 12:14:25;;;;;;;18.55;8.75;;;4.20;99.90;;;;;;5046188;28;20029;-77
2020/12/30 12:16:55;;;;;;;21.80;10.57;;;4.30;99.90;;;;;;5044847;28;20330;-76
2020/12/30 12:19:22;;;;;;;20.65;11.52;;;4.30;99.90;;;;;;5045832;28;20040;-77
2020/12/30 12:21:49;;;;;;;16.65;9.55;;;4.30;99.90;;;;;;5062788;28;20025;-77
2020/12/30 12:24:14;;;;;;;29.27;10.98;;;4.30;99.90;;;;;;5028189;28;20392;-77
2020/12/30 12:26:41;;;;;;;22.70;10.35;;;4.30;99.90;;;;;;5061740;28;20030;-77
2020/12/30 12:29:42;;;;;;;28.20;12.35;;;4.40;99.90;;;;;;5028524;28;20029;-77
2020/12/30 12:32:21;;;;;;;34.35;13.27;;;4.30;99.90;;;;;;5028159;28;20036;-78
2020/12/30 12:34:49;;;;;;;26.08;10.63;;;4.40;99.90;;;;;;5045772;28;20501;-78
2020/12/30 12:37:16;;;;;;;20.48;8.88;;;4.40;99.90;;;;;;5027230;28;20040;-78
2020/12/30 12:39:44;;;;;;;24.42;10.10;;;4.30;99.90;;;;;;5027449;28;20029;-78
2020/12/30 12:42:11;;;;;;;22.92;10.52;;;4.40;99.90;;;;;;5028227;28;20021;-79
2020/12/30 12:44:37;;;;;;;23.17;10.85;;;4.40;99.90;;;;;;5046031;28;20044;-77
2020/12/30 12:47:03;;;;;;;16.23;7.53;;;4.40;99.90;;;;;;5045459;28;20025;-76
2020/12/30 12:49:29;;;;;;;25.05;10.23;;;4.40;99.90;;;;;;5027961;28;20084;-76